Time;durP1;ratioP1;P1;durP2;ratioP2;P2;SDS_P1;SDS_P2;PMS_P1;PMS_P2;Temp;Humidity;BMP_temperature;BMP_pressure;BME280_temperature;BME280_humidity;BME280_pressure;Samples;Min_cycle;Max_cycle;Signal;HPM_P1;HPM_P2
2022/09/24 00:01:29;;;;;;;22.70;13.38;;;15.00;99.90;;;;;;5103328;28;20028;-37
2022/09/24 00:03:59;;;;;;;20.67;12.48;;;15.00;99.90;;;;;;5092519;28;20082;-36
2022/09/24 00:06:26;;;;;;;23.40;13.80;;;14.90;99.90;;;;;;5091710;28;20383;-35
2022/09/24 00:08:54;;;;;;;23.45;13.27;;;14.90;99.90;;;;;;5107154;28;20472;-36
2022/09/24 00:11:20;;;;;;;18.98;11.93;;;14.90;99.90;;;;;;5080542;28;20023;-33
2022/09/24 00:13:47;;;;;;;20.33;11.38;;;14.90;99.90;;;;;;5103085;28;20072;-40
2022/09/24 00:16:15;;;;;;;16.73;11.18;;;14.90;99.90;;;;;;5111708;28;20495;-32
2022/09/24 00:18:41;;;;;;;;;;;14.90;99.90;;;;;;5107904;28;20027;-36
2022/09/24 00:21:18;;;;;;;18.00;10.27;;;14.80;99.90;;;;;;5103093;28;19923;-37
2022/09/24 00:23:48;;;;;;;20.52;11.98;;;14.80;99.90;;;;;;5097913;28;20016;-35
2022/09/24 00:28:59;;;;;;;23.02;12.25;;;14.70;99.90;;;;;;5100186;28;20116;-37
2022/09/24 00:31:26;;;;;;;21.65;11.68;;;14.70;99.90;;;;;;5072220;28;20028;-41
2022/09/24 00:33:53;;;;;;;16.85;10.27;;;14.70;99.90;;;;;;5092718;28;20035;-38
2022/09/24 00:36:19;;;;;;;20.13;11.82;;;14.70;99.90;;;;;;5104747;28;20395;-36
2022/09/24 00:38:51;;;;;;;17.90;10.52;;;14.70;99.90;;;;;;5105804;28;20054;-36
2022/09/24 00:41:23;;;;;;;17.75;10.75;;;14.70;99.90;;;;;;5103136;28;20090;-38
2022/09/24 00:43:49;;;;;;;21.80;11.13;;;14.60;99.90;;;;;;5107328;28;20554;-40
2022/09/24 00:46:42;;;;;;;17.45;10.30;;;14.60;99.90;;;;;;5110423;28;20015;-38
2022/09/24 00:49:15;;;;;;;19.80;11.10;;;14.60;99.90;;;;;;5110160;28;20080;-42
2022/09/24 00:51:42;;;;;;;23.85;11.60;;;14.60;99.90;;;;;;5082990;28;20475;-35
2022/09/24 00:54:21;;;;;;;17.55;9.95;;;14.60;99.90;;;;;;5085027;28;20110;-36
2022/09/24 00:56:49;;;;;;;22.63;11.40;;;14.60;99.90;;;;;;5092759;28;20476;-39
2022/09/24 00:59:17;;;;;;;22.08;9.95;;;14.60;99.90;;;;;;5104207;28;20058;-37
2022/09/24 01:01:47;;;;;;;19.92;11.80;;;14.60;99.90;;;;;;5100327;28;20111;-39
2022/09/24 01:04:15;;;;;;;18.08;10.88;;;14.60;99.90;;;;;;5095183;28;20073;-39
2022/09/24 01:06:41;;;;;;;18.85;11.32;;;14.50;99.90;;;;;;5078429;28;20096;-36
2022/09/24 01:09:07;;;;;;;15.82;10.77;;;14.60;99.90;;;;;;5094119;28;20111;-38
2022/09/24 01:11:48;;;;;;;17.70;10.65;;;14.60;99.90;;;;;;5100920;28;20417;-37
2022/09/24 01:14:22;;;;;;;21.25;11.57;;;14.50;99.90;;;;;;5091351;28;20032;-33
2022/09/24 01:17:05;;;;;;;21.33;11.20;;;14.50;99.90;;;;;;5111767;28;20438;-31
2022/09/24 01:19:33;;;;;;;21.90;11.55;;;14.50;99.90;;;;;;5112823;28;20031;-33
2022/09/24 01:22:11;;;;;;;23.85;12.95;;;14.50;99.90;;;;;;5096979;28;20028;-34
2022/09/24 01:24:55;;;;;;;20.27;12.18;;;14.50;99.90;;;;;;5091604;28;20050;-34
2022/09/24 01:27:24;;;;;;;24.60;12.18;;;14.50;99.90;;;;;;5104580;28;20028;-35
2022/09/24 01:30:02;;;;;;;21.55;13.07;;;14.40;99.90;;;;;;5105801;28;20023;-34
2022/09/24 01:32:48;;;;;;;22.63;12.48;;;14.40;99.90;;;;;;5094536;28;20032;-30
2022/09/24 01:35:23;;;;;;;22.10;13.20;;;14.40;99.90;;;;;;5109565;28;20542;-37
2022/09/24 01:37:59;;;;;;;25.65;13.38;;;14.40;99.90;;;;;;5111735;28;20487;-31
2022/09/24 01:40:27;;;;;;;27.83;14.20;;;14.40;99.90;;;;;;5101537;28;20479;-42
2022/09/24 01:42:55;;;;;;;30.10;15.48;;;14.40;99.90;;;;;;5099463;28;20380;-36
2022/09/24 01:45:21;;;;;;;25.58;14.90;;;14.30;99.90;;;;;;5116458;28;20023;-37
2022/09/24 01:47:47;;;;;;;29.38;15.70;;;14.30;99.90;;;;;;5108721;28;20072;-40
2022/09/24 01:50:16;;;;;;;27.27;15.35;;;14.30;99.90;;;;;;5100754;28;20426;-48
2022/09/24 01:53:05;;;;;;;29.48;14.88;;;14.20;99.90;;;;;;5107488;28;20038;-42
2022/09/24 01:55:37;;;;;;;27.80;14.80;;;14.20;99.90;;;;;;5080498;28;20087;-42
2022/09/24 01:58:28;;;;;;;23.30;13.68;;;14.20;99.90;;;;;;5087182;28;20086;-45
2022/09/24 02:01:02;;;;;;;26.35;14.25;;;14.30;99.90;;;;;;5096883;28;20576;-43
2022/09/24 02:03:35;;;;;;;25.02;15.10;;;14.30;99.90;;;;;;5082501;28;20016;-41
2022/09/24 02:06:09;;;;;;;25.83;13.95;;;14.30;99.90;;;;;;5114806;28;20032;-43
2022/09/24 02:08:45;;;;;;;25.40;14.18;;;14.30;99.90;;;;;;5110600;28;20103;-33
2022/09/24 02:11:23;;;;;;;26.67;15.15;;;14.30;99.90;;;;;;5100786;28;20031;-40
2022/09/24 02:14:11;;;;;;;26.88;14.68;;;14.20;99.90;;;;;;5105814;28;20063;-36
2022/09/24 02:16:46;;;;;;;26.98;14.68;;;14.20;99.90;;;;;;5110917;28;20028;-35
2022/09/24 02:19:16;;;;;;;29.52;13.13;;;14.20;99.90;;;;;;5110684;28;20032;-43
2022/09/24 02:21:44;;;;;;;23.13;13.13;;;14.20;99.90;;;;;;5107719;28;20412;-36
2022/09/24 02:24:23;;;;;;;27.67;14.32;;;14.20;99.90;;;;;;5079082;28;20029;-36
2022/09/24 02:26:49;;;;;;;23.75;12.52;;;14.10;99.90;;;;;;5092554;28;20471;-34
2022/09/24 02:29:17;;;;;;;24.73;14.23;;;14.10;99.90;;;;;;5099624;28;20434;-36
2022/09/24 02:31:47;;;;;;;27.40;13.63;;;14.10;99.90;;;;;;5103069;28;20027;-36
2022/09/24 02:34:26;;;;;;;23.90;12.98;;;14.10;99.90;;;;;;5114016;28;20491;-38
2022/09/24 02:36:58;;;;;;;23.98;13.38;;;14.10;99.90;;;;;;5111857;28;20038;-34
2022/09/24 02:39:24;;;;;;;25.90;13.07;;;14.10;99.90;;;;;;5108970;28;20106;-31
2022/09/24 02:41:51;;;;;;;25.63;13.60;;;14.10;99.90;;;;;;5101087;28;20040;-35
2022/09/24 02:44:18;;;;;;;23.65;12.65;;;14.10;99.90;;;;;;5113951;28;20381;-36
2022/09/24 02:46:45;;;;;;;26.20;12.95;;;14.10;99.90;;;;;;5094315;28;20031;-37
2022/09/24 02:49:11;;;;;;;22.08;11.95;;;14.10;99.90;;;;;;5107911;28;20077;-37
2022/09/24 02:51:37;;;;;;;23.80;12.52;;;14.10;99.90;;;;;;5086567;28;20034;-39
2022/09/24 02:54:03;;;;;;;24.02;12.18;;;14.00;99.90;;;;;;5113680;28;20487;-36
2022/09/24 02:56:29;;;;;;;26.38;12.68;;;14.00;99.90;;;;;;5086541;28;20366;-32
2022/09/24 02:58:55;;;;;;;25.30;12.05;;;14.00;99.90;;;;;;5105811;28;20076;-37
2022/09/24 03:01:22;;;;;;;24.35;12.57;;;14.00;99.90;;;;;;5113537;28;20073;-32
2022/09/24 03:03:48;;;;;;;26.45;12.73;;;14.10;99.90;;;;;;5093742;28;20027;-35
2022/09/24 03:06:13;;;;;;;28.80;13.07;;;14.10;99.90;;;;;;5106844;28;20468;-34
2022/09/24 03:08:41;;;;;;;22.15;13.18;;;14.00;99.90;;;;;;5107721;28;20388;-36
2022/09/24 03:11:07;;;;;;;30.23;13.10;;;14.00;99.90;;;;;;5109618;28;20063;-37
2022/09/24 03:13:33;;;;;;;24.33;13.77;;;14.00;99.90;;;;;;5098038;28;20023;-35
2022/09/24 03:15:58;;;;;;;26.20;13.20;;;14.00;99.90;;;;;;5110401;28;20469;-35
2022/09/24 03:18:24;;;;;;;24.35;14.15;;;14.00;99.90;;;;;;5100353;28;20038;-32
2022/09/24 03:20:57;;;;;;;30.58;15.02;;;14.00;99.90;;;;;;5107843;28;20080;-36
2022/09/24 03:23:23;;;;;;;24.92;14.30;;;14.00;99.90;;;;;;5109277;28;20038;-36
2022/09/24 03:25:48;;;;;;;27.25;13.80;;;14.00;99.90;;;;;;5111595;28;20476;-43
2022/09/24 03:28:15;;;;;;;23.75;12.75;;;14.00;99.90;;;;;;5085626;28;20024;-39
2022/09/24 03:33:29;;;;;;;29.33;14.63;;;14.00;99.90;;;;;;5101938;28;20039;-35
2022/09/24 03:36:01;;;;;;;30.00;14.60;;;14.00;99.90;;;;;;5109745;28;20027;-34
2022/09/24 03:38:28;;;;;;;27.75;13.70;;;14.00;99.90;;;;;;5083524;28;20017;-35
2022/09/24 03:40:55;;;;;;;30.85;15.40;;;14.00;99.90;;;;;;5089919;28;20484;-34
2022/09/24 03:43:21;;;;;;;31.80;14.50;;;14.00;99.90;;;;;;5085589;28;20024;-33
2022/09/24 03:45:48;;;;;;;35.88;16.90;;;14.00;99.90;;;;;;5111082;28;20015;-37
2022/09/24 03:48:14;;;;;;;33.40;15.30;;;14.00;99.90;;;;;;5093801;28;20020;-38
2022/09/24 03:50:40;;;;;;;36.65;17.45;;;14.10;99.90;;;;;;5102438;28;20031;-33
2022/09/24 03:53:05;;;;;;;35.35;16.42;;;14.10;99.90;;;;;;5102427;28;20448;-36
2022/09/24 03:55:31;;;;;;;34.83;16.27;;;14.10;99.90;;;;;;5112891;28;20059;-33
2022/09/24 03:57:57;;;;;;;33.47;16.13;;;14.10;99.90;;;;;;5084056;28;20059;-41
2022/09/24 04:00:22;;;;;;;36.13;16.77;;;14.10;99.90;;;;;;5106773;28;20106;-42
2022/09/24 04:02:49;;;;;;;33.58;16.00;;;14.10;99.90;;;;;;5074976;28;20023;-43
2022/09/24 04:05:15;;;;;;;33.05;16.23;;;14.10;99.90;;;;;;5113871;28;20463;-41
2022/09/24 04:07:42;;;;;;;37.25;17.10;;;14.10;99.90;;;;;;5098186;28;20095;-42
2022/09/24 04:10:08;;;;;;;37.30;17.98;;;14.10;99.90;;;;;;5101912;28;20023;-50
2022/09/24 04:12:34;;;;;;;38.08;18.05;;;14.10;99.90;;;;;;5103391;28;20024;-40
2022/09/24 04:15:01;;;;;;;37.15;17.30;;;14.00;99.90;;;;;;5100537;28;20495;-41
2022/09/24 04:17:30;;;;;;;33.33;17.27;;;14.10;99.90;;;;;;5106815;28;20436;-32
2022/09/24 04:19:56;;;;;;;34.50;16.90;;;14.10;99.90;;;;;;5092820;28;20046;-33
2022/09/24 04:22:22;;;;;;;38.15;17.65;;;14.10;99.90;;;;;;5111136;28;20483;-33
2022/09/24 04:24:47;;;;;;;36.75;17.15;;;14.10;99.90;;;;;;5112542;28;20035;-33
2022/09/24 04:27:13;;;;;;;35.22;17.30;;;14.10;99.90;;;;;;5100668;28;20024;-34
2022/09/24 04:29:38;;;;;;;34.40;16.85;;;14.10;99.90;;;;;;5098365;28;20042;-31
2022/09/24 04:32:04;;;;;;;33.17;16.40;;;14.00;99.90;;;;;;5094887;28;20028;-32
2022/09/24 04:34:30;;;;;;;36.97;16.80;;;14.00;99.90;;;;;;5110267;28;20079;-35
2022/09/24 04:36:55;;;;;;;36.70;17.63;;;14.00;99.90;;;;;;5110562;28;20552;-37
2022/09/24 04:39:25;;;;;;;32.72;16.35;;;14.00;99.90;;;;;;5106825;28;20039;-46
2022/09/24 04:41:51;;;;;;;32.25;17.58;;;14.00;99.90;;;;;;5108706;28;20400;-41
2022/09/24 04:44:16;;;;;;;39.88;17.45;;;14.00;99.90;;;;;;5115336;28;20031;-39
2022/09/24 04:46:42;;;;;;;36.85;17.60;;;13.90;99.90;;;;;;5111509;28;20110;-41
2022/09/24 04:49:08;;;;;;;32.75;17.58;;;13.90;99.90;;;;;;5105209;28;20028;-41
2022/09/24 04:51:34;;;;;;;32.90;16.38;;;13.90;99.90;;;;;;5105343;28;20024;-40
2022/09/24 04:54:03;;;;;;;35.10;16.70;;;13.90;99.90;;;;;;5111306;28;20028;-40
2022/09/24 04:56:30;;;;;;;32.78;16.00;;;13.90;99.90;;;;;;5086958;28;20472;-43
2022/09/24 04:58:56;;;;;;;32.58;16.65;;;13.90;99.90;;;;;;5112303;28;20028;-40
2022/09/24 05:01:23;;;;;;;33.60;16.77;;;13.90;99.90;;;;;;5110130;28;20514;-35
2022/09/24 05:03:49;;;;;;;29.10;14.60;;;13.90;99.90;;;;;;5114897;28;20068;-40
2022/09/24 05:06:14;;;;;;;33.67;15.77;;;13.90;99.90;;;;;;5116099;28;20028;-38
2022/09/24 05:08:40;;;;;;;30.58;16.13;;;13.90;99.90;;;;;;5106545;28;20031;-40
2022/09/24 05:11:06;;;;;;;31.30;13.82;;;13.90;99.90;;;;;;5086732;28;20055;-33
2022/09/24 05:13:32;;;;;;;29.00;13.88;;;13.90;99.90;;;;;;5093909;28;20365;-34
2022/09/24 05:15:59;;;;;;;31.40;14.18;;;13.90;99.90;;;;;;5102798;28;20032;-36
2022/09/24 05:18:26;;;;;;;34.22;15.60;;;13.90;99.90;;;;;;5110492;28;20024;-39
2022/09/24 05:20:52;;;;;;;34.22;15.15;;;13.90;99.90;;;;;;5111727;28;20514;-34
2022/09/24 05:23:17;;;;;;;30.35;14.57;;;13.90;99.90;;;;;;5106524;28;20024;-35
2022/09/24 05:28:27;;;;;;;31.08;14.93;;;13.90;99.90;;;;;;5106945;28;20035;-35
2022/09/24 05:30:56;;;;;;;27.67;13.70;;;13.90;99.90;;;;;;5109462;28;20024;-39
2022/09/24 05:33:22;;;;;;;30.98;13.55;;;13.90;99.90;;;;;;5078047;28;20036;-36
2022/09/24 05:35:53;;;;;;;27.38;12.80;;;13.90;99.90;;;;;;5114491;28;20030;-38
2022/09/24 05:38:19;;;;;;;29.67;14.02;;;13.90;99.90;;;;;;5086829;28;20023;-39
2022/09/24 05:40:47;;;;;;;27.45;12.85;;;13.90;99.90;;;;;;5114008;28;20489;-38
2022/09/24 05:43:14;;;;;;;25.20;12.25;;;13.90;99.90;;;;;;5101586;28;20032;-42
2022/09/24 05:45:40;;;;;;;24.92;13.65;;;13.90;99.90;;;;;;5112517;28;20489;-31
2022/09/24 05:48:06;;;;;;;27.08;13.25;;;13.90;99.90;;;;;;5101500;28;20442;-54
2022/09/24 05:50:33;;;;;;;22.45;11.98;;;13.90;99.90;;;;;;5101019;28;20024;-41
2022/09/24 05:53:00;;;;;;;31.30;12.40;;;13.90;99.90;;;;;;5097240;28;20476;-40
2022/09/24 05:55:26;;;;;;;26.58;12.38;;;13.80;99.90;;;;;;5074760;28;20274;-39
2022/09/24 05:57:52;;;;;;;23.55;11.52;;;13.80;99.90;;;;;;5089994;28;20040;-35
2022/09/24 06:00:17;;;;;;;23.27;11.73;;;13.80;99.90;;;;;;5104997;28;20106;-39
2022/09/24 06:02:43;;;;;;;22.95;11.60;;;13.80;99.90;;;;;;5105437;28;20070;-39
2022/09/24 06:05:09;;;;;;;21.05;10.48;;;13.80;99.90;;;;;;5111232;28;20015;-38
2022/09/24 06:07:35;;;;;;;24.10;12.02;;;13.80;99.90;;;;;;5112175;28;20023;-34
2022/09/24 06:10:00;;;;;;;21.13;11.10;;;13.80;99.90;;;;;;5112367;28;20540;-41
2022/09/24 06:12:26;;;;;;;23.17;11.32;;;13.80;99.90;;;;;;5107862;28;20076;-39
2022/09/24 06:14:52;;;;;;;18.58;10.35;;;13.90;99.90;;;;;;5101781;28;20060;-34
2022/09/24 06:17:19;;;;;;;17.85;10.05;;;13.90;99.90;;;;;;5114470;28;20043;-34
2022/09/24 06:19:46;;;;;;;20.80;10.77;;;13.90;99.90;;;;;;5109197;28;20488;-36
2022/09/24 06:22:12;;;;;;;19.63;10.45;;;13.90;99.90;;;;;;5112002;28;20487;-34
2022/09/24 06:24:37;;;;;;;20.13;11.02;;;14.00;99.90;;;;;;5108435;28;20126;-32
2022/09/24 06:27:03;;;;;;;20.55;10.38;;;14.00;99.90;;;;;;5112098;28;20028;-41
2022/09/24 06:29:29;;;;;;;20.02;10.63;;;14.00;99.90;;;;;;5086355;28;20024;-46
2022/09/24 06:31:55;;;;;;;27.08;12.57;;;14.00;99.90;;;;;;5108402;28;20403;-40
2022/09/24 06:34:20;;;;;;;18.25;10.07;;;14.00;99.90;;;;;;5112570;28;20034;-40
2022/09/24 06:36:46;;;;;;;20.38;10.55;;;14.00;99.90;;;;;;5112780;28;20542;-39
2022/09/24 06:39:11;;;;;;;21.92;11.18;;;14.10;99.90;;;;;;5111001;28;20745;-42
2022/09/24 06:41:37;;;;;;;25.10;11.73;;;14.10;99.90;;;;;;5093957;28;20048;-41
2022/09/24 06:44:02;;;;;;;25.35;10.50;;;14.10;99.90;;;;;;5099802;28;20085;-36
2022/09/24 06:46:29;;;;;;;25.13;11.75;;;14.10;99.90;;;;;;5114870;28;20515;-36
2022/09/24 06:48:54;;;;;;;24.05;11.50;;;14.10;99.90;;;;;;5105834;28;20048;-35
2022/09/24 06:51:20;;;;;;;24.88;11.55;;;14.10;99.90;;;;;;5092988;28;20064;-38
2022/09/24 06:53:50;;;;;;;27.13;12.18;;;14.10;99.90;;;;;;5105879;28;20019;-36
2022/09/24 06:56:15;;;;;;;24.10;12.57;;;14.10;99.90;;;;;;5114690;28;20019;-36
2022/09/24 06:58:41;;;;;;;25.55;12.35;;;14.10;99.90;;;;;;5102961;28;20054;-36
2022/09/24 07:01:07;;;;;;;22.63;11.65;;;14.10;99.90;;;;;;5111371;28;20023;-33
2022/09/24 07:03:33;;;;;;;30.77;14.15;;;14.10;99.90;;;;;;5100515;28;20027;-35
2022/09/24 07:06:04;;;;;;;27.98;12.43;;;14.10;99.90;;;;;;5105622;28;20102;-33
2022/09/24 07:08:30;;;;;;;29.27;12.55;;;14.10;99.90;;;;;;5107181;28;20035;-33
2022/09/24 07:10:56;;;;;;;23.88;11.30;;;14.10;99.90;;;;;;5076470;28;20065;-35
2022/09/24 07:13:21;;;;;;;26.52;13.15;;;14.10;99.90;;;;;;5112567;28;20479;-39
2022/09/24 07:15:49;;;;;;;24.77;12.48;;;14.20;99.90;;;;;;5109275;28;20043;-36
2022/09/24 07:18:15;;;;;;;26.70;12.73;;;14.20;99.90;;;;;;5107084;28;20020;-35
2022/09/24 07:20:42;;;;;;;35.65;13.20;;;14.20;99.90;;;;;;5093058;28;20100;-36
2022/09/24 07:23:10;;;;;;;24.75;13.07;;;14.20;99.90;;;;;;5092878;28;20495;-40
2022/09/24 07:25:36;;;;;;;30.55;13.57;;;14.10;99.90;;;;;;5091864;28;20039;-39
2022/09/24 07:28:08;;;;;;;30.70;14.02;;;14.20;99.90;;;;;;5109561;28;20020;-33
2022/09/24 07:30:34;;;;;;;29.27;14.32;;;14.10;99.90;;;;;;5084124;28;20034;-35
2022/09/24 07:33:00;;;;;;;25.45;12.55;;;14.10;99.90;;;;;;5086593;28;20028;-34
2022/09/24 07:35:27;;;;;;;29.90;13.48;;;14.10;99.90;;;;;;5088437;28;20103;-35
2022/09/24 07:38:22;;;;;;;26.25;12.32;;;14.10;99.90;;;;;;5102583;28;20433;-33
2022/09/24 07:40:48;;;;;;;25.13;11.93;;;14.10;99.90;;;;;;5088345;28;20042;-36
2022/09/24 07:43:14;;;;;;;21.50;11.48;;;14.10;99.90;;;;;;5088478;28;20495;-34
2022/09/24 07:45:40;;;;;;;24.17;12.82;;;14.10;99.90;;;;;;5109837;28;20027;-36
2022/09/24 07:48:07;;;;;;;28.92;12.10;;;14.20;99.90;;;;;;5092597;28;20479;-39
2022/09/24 07:50:37;;;;;;;25.27;12.23;;;14.10;99.90;;;;;;5091209;28;20019;-35
2022/09/24 07:53:03;;;;;;;26.88;11.88;;;14.10;99.90;;;;;;5088582;28;20081;-37
2022/09/24 07:55:28;;;;;;;22.00;10.15;;;14.10;99.90;;;;;;5096205;28;20488;-32
2022/09/24 07:57:54;;;;;;;18.83;10.15;;;14.10;99.90;;;;;;5102048;28;20499;-32
2022/09/24 08:00:22;;;;;;;21.20;10.82;;;14.20;99.90;;;;;;5090376;28;20032;-36
2022/09/24 08:02:48;;;;;;;27.23;10.88;;;14.20;99.90;;;;;;5103625;28;20020;-34
2022/09/24 08:05:16;;;;;;;21.42;10.43;;;14.20;99.90;;;;;;5109958;28;20511;-33
2022/09/24 08:07:49;;;;;;;17.70;9.20;;;14.30;99.90;;;;;;5099145;28;20499;-50
2022/09/24 08:10:15;;;;;;;17.20;8.77;;;14.20;99.90;;;;;;5098669;28;20053;-49
2022/09/24 08:12:41;;;;;;;17.73;9.35;;;14.20;99.90;;;;;;5104421;28;20028;-46
2022/09/24 08:15:07;;;;;;;18.88;8.38;;;14.20;99.90;;;;;;5094073;28;20517;-36
2022/09/24 08:17:33;;;;;;;19.35;8.73;;;14.20;99.90;;;;;;5106198;28;20023;-32
2022/09/24 08:19:58;;;;;;;17.98;8.13;;;14.20;99.90;;;;;;5110992;28;20024;-35
2022/09/24 08:22:25;;;;;;;20.25;8.13;;;14.30;99.90;;;;;;5084472;28;20564;-33
2022/09/24 08:24:51;;;;;;;15.63;8.52;;;14.30;99.90;;;;;;5103122;28;20156;-35
2022/09/24 08:27:19;;;;;;;15.23;8.23;;;14.30;99.90;;;;;;5094177;28;20346;-35
2022/09/24 08:29:45;;;;;;;20.17;8.27;;;14.30;99.90;;;;;;5107966;28;20038;-34
2022/09/24 08:32:11;;;;;;;16.02;8.50;;;14.30;99.90;;;;;;5092739;28;20031;-33
2022/09/24 08:34:39;;;;;;;18.90;9.10;;;14.30;99.90;;;;;;5106246;28;20047;-33
2022/09/24 08:37:08;;;;;;;17.75;7.60;;;14.30;99.90;;;;;;5093147;28;20503;-32
2022/09/24 08:39:34;;;;;;;14.70;7.88;;;14.30;99.90;;;;;;5101036;28;20033;-34
2022/09/24 08:42:03;;;;;;;15.52;7.93;;;14.30;99.90;;;;;;5075216;28;20085;-33
2022/09/24 08:47:49;;;;;;;15.88;7.85;;;14.30;99.90;;;;;;5095958;28;20038;-35
2022/09/24 08:50:26;;;;;;;18.23;8.05;;;14.30;99.90;;;;;;5080958;28;20417;-36
2022/09/24 08:53:01;;;;;;;14.13;8.07;;;14.30;99.90;;;;;;5095204;28;20031;-35
2022/09/24 08:55:35;;;;;;;17.58;8.32;;;14.30;99.90;;;;;;5096514;28;20503;-33
2022/09/24 08:58:15;;;;;;;16.95;8.02;;;14.20;99.90;;;;;;5092668;28;20080;-35
2022/09/24 09:00:59;;;;;;;15.23;8.00;;;14.30;99.90;;;;;;5101414;28;20028;-34
2022/09/24 09:03:48;;;;;;;22.92;9.77;;;14.30;99.90;;;;;;5097056;28;20028;-32
2022/09/24 09:06:38;;;;;;;18.92;7.85;;;14.40;99.90;;;;;;5101707;28;20471;-47
2022/09/24 09:09:11;;;;;;;14.02;7.60;;;14.30;99.90;;;;;;5072390;28;20126;-39
2022/09/24 09:14:32;;;;;;;16.30;8.65;;;14.30;99.90;;;;;;5103267;28;20617;-34
2022/09/24 09:17:04;;;;;;;17.67;8.13;;;14.40;99.90;;;;;;5111042;28;20032;-33
2022/09/24 09:19:33;;;;;;;14.68;6.93;;;14.40;99.90;;;;;;5100561;28;20035;-35
2022/09/24 09:22:06;;;;;;;13.50;6.18;;;14.40;99.90;;;;;;5090236;28;20025;-36
2022/09/24 09:24:47;;;;;;;9.40;4.53;;;14.40;99.90;;;;;;5091211;28;20472;-34
2022/09/24 09:27:15;;;;;;;10.05;4.40;;;14.30;99.90;;;;;;5093633;28;20521;-30
2022/09/24 09:29:45;;;;;;;5.93;3.72;;;14.20;99.90;;;;;;5105345;28;20015;-36
2022/09/24 09:32:45;;;;;;;5.05;3.15;;;14.30;99.90;;;;;;5094949;28;20503;-32
2022/09/24 09:35:18;;;;;;;6.70;3.35;;;14.30;99.90;;;;;;5095804;28;20024;-36
2022/09/24 09:37:54;;;;;;;6.85;3.15;;;14.30;99.90;;;;;;5105775;28;20506;-37
2022/09/24 09:40:22;;;;;;;4.38;2.92;;;14.30;99.90;;;;;;5114758;28;20037;-35
2022/09/24 09:42:48;;;;;;;6.82;2.88;;;14.30;99.90;;;;;;5114538;28;20056;-32
2022/09/24 09:45:40;;;;;;;6.57;2.53;;;14.30;99.90;;;;;;5110007;28;20024;-31
2022/09/24 09:48:11;;;;;;;5.38;2.50;;;14.40;99.90;;;;;;5104750;28;20024;-33
2022/09/24 09:51:03;;;;;;;7.80;2.05;;;14.30;99.90;;;;;;5096160;28;20044;-36
2022/09/24 09:53:30;;;;;;;4.10;1.98;;;14.30;99.90;;;;;;5110340;28;20506;-32
2022/09/24 09:56:14;;;;;;;6.05;2.05;;;14.30;99.90;;;;;;5107343;28;20112;-32
2022/09/24 09:58:46;;;;;;;2.92;1.73;;;14.30;99.90;;;;;;5109770;28;20050;-34
2022/09/24 10:01:16;;;;;;;9.77;1.98;;;14.30;99.90;;;;;;5099295;28;20439;-34
2022/09/24 10:03:48;;;;;;;7.05;1.70;;;14.30;99.90;;;;;;5109816;28;20028;-31
2022/09/24 10:06:25;;;;;;;5.95;2.10;;;14.20;99.90;;;;;;5095451;28;20023;-33
2022/09/24 10:08:51;;;;;;;4.82;1.90;;;14.30;99.90;;;;;;5108009;28;20111;-33
2022/09/24 10:11:18;;;;;;;7.88;1.75;;;14.30;99.90;;;;;;5113869;28;20522;-31
2022/09/24 10:13:44;;;;;;;5.75;1.90;;;14.30;99.90;;;;;;5114829;28;20479;-32
2022/09/24 10:16:14;;;;;;;9.05;2.22;;;14.30;99.90;;;;;;5115752;28;20053;-33
2022/09/24 10:18:48;;;;;;;7.00;1.75;;;14.20;99.90;;;;;;5085403;28;20085;-32
2022/09/24 10:21:30;;;;;;;4.55;1.98;;;14.20;99.90;;;;;;5102103;28;20028;-32
2022/09/24 10:24:00;;;;;;;6.63;1.45;;;14.30;99.90;;;;;;5095270;28;20468;-35
2022/09/24 10:26:36;;;;;;;5.93;1.83;;;14.30;99.90;;;;;;5108530;28;20016;-35
2022/09/24 10:31:47;;;;;;;4.30;1.98;;;14.30;99.90;;;;;;5113204;28;20112;-35
2022/09/24 10:34:26;;;;;;;2.78;1.73;;;14.30;99.90;;;;;;5088347;28;20115;-34
2022/09/24 10:37:01;;;;;;;4.05;1.85;;;14.30;99.90;;;;;;5088779;28;20035;-34
2022/09/24 10:39:27;;;;;;;5.00;1.85;;;14.30;99.90;;;;;;5100520;28;20529;-33
2022/09/24 10:41:55;;;;;;;5.40;1.92;;;14.30;99.90;;;;;;5101845;28;20039;-31
2022/09/24 10:44:23;;;;;;;6.43;2.60;;;14.30;99.90;;;;;;5114720;28;20084;-31
2022/09/24 10:47:00;;;;;;;4.20;3.28;;;14.30;99.90;;;;;;5090321;28;20481;-33
2022/09/24 10:50:07;;;;;;;9.45;3.42;;;14.40;99.90;;;;;;5090750;28;20099;-32
2022/09/24 10:52:41;;;;;;;5.80;3.53;;;14.40;99.90;;;;;;5072458;28;20379;-32
2022/09/24 10:55:25;;;;;;;9.38;3.58;;;14.40;99.90;;;;;;5098058;28;20028;-35
2022/09/24 10:58:23;;;;;;;7.82;3.20;;;14.40;99.90;;;;;;5098757;28;20036;-40
2022/09/24 11:01:18;;;;;;;15.63;2.75;;;14.40;99.90;;;;;;5049070;28;20447;-32
2022/09/24 11:03:55;;;;;;;4.30;2.17;;;14.30;99.90;;;;;;5091575;28;20115;-37
2022/09/24 11:07:03;;;;;;;5.05;2.20;;;14.20;99.90;;;;;;5100551;28;20024;-35
2022/09/24 11:09:45;;;;;;;8.85;2.38;;;14.20;99.90;;;;;;5064538;28;20028;-42
2022/09/24 11:12:44;;;;;;;10.27;2.25;;;14.10;99.90;;;;;;5091656;28;20032;-41
2022/09/24 11:15:44;;;;;;;3.45;1.88;;;14.20;99.90;;;;;;5077163;28;20468;-37
2022/09/24 11:18:37;;;;;;;10.43;2.42;;;14.10;99.90;;;;;;5101035;28;20035;-38
2022/09/24 11:21:17;;;;;;;6.22;2.05;;;14.10;99.90;;;;;;5093334;28;20024;-33
2022/09/24 11:23:54;;;;;;;4.45;1.85;;;14.10;99.90;;;;;;5091884;28;20032;-41
2022/09/24 11:26:45;;;;;;;5.00;2.20;;;14.20;99.90;;;;;;5083520;28;20391;-33
2022/09/24 11:29:47;;;;;;;21.55;2.42;;;14.20;99.90;;;;;;5104631;28;20025;-36
2022/09/24 11:32:22;;;;;;;13.57;3.95;;;14.30;99.90;;;;;;5080858;28;20392;-33
2022/09/24 11:35:36;;;;;;;20.45;3.13;;;14.20;99.90;;;;;;5107368;28;20365;-39
2022/09/24 11:38:13;;;;;;;9.60;2.00;;;14.30;99.90;;;;;;5018666;28;20033;-36
2022/09/24 11:41:02;;;;;;;6.00;1.52;;;14.30;99.90;;;;;;5031051;28;20432;-33
2022/09/24 11:44:04;;;;;;;5.80;1.70;;;14.30;99.90;;;;;;5059409;28;20066;-31
2022/09/24 11:46:48;;;;;;;5.45;1.88;;;14.30;99.90;;;;;;5075878;28;20480;-32
2022/09/24 11:49:35;;;;;;;14.60;2.45;;;14.30;99.90;;;;;;5098898;28;20528;-38
2022/09/24 11:52:17;;;;;;;5.63;1.95;;;14.30;99.90;;;;;;5113288;28;20102;-31
2022/09/24 11:55:16;;;;;;;9.25;2.40;;;14.30;99.90;;;;;;5111576;28;20069;-34
2022/09/24 11:57:52;;;;;;;8.98;2.60;;;14.30;99.90;;;;;;5105998;28;20492;-41
2022/09/24 12:00:19;;;;;;;7.18;2.00;;;14.20;99.90;;;;;;5113628;28;20023;-33
2022/09/24 12:03:13;;;;;;;11.77;1.87;;;14.10;99.90;;;;;;5110502;28;20050;-32
2022/09/24 12:05:45;;;;;;;12.85;2.30;;;14.20;99.90;;;;;;5101384;28;20277;-36
2022/09/24 12:08:26;;;;;;;15.70;2.45;;;14.20;99.90;;;;;;5110234;28;20024;-36
2022/09/24 12:11:00;;;;;;;18.63;3.03;;;14.20;99.90;;;;;;5107224;28;20474;-36
2022/09/24 12:14:14;;;;;;;9.73;2.20;;;14.10;99.90;;;;;;5113413;28;20089;-38
2022/09/24 12:16:44;;;;;;;12.45;2.33;;;14.10;99.90;;;;;;5081328;28;20393;-37
2022/09/24 12:19:31;;;;;;;10.77;2.85;;;14.20;99.90;;;;;;5110507;28;20022;-35
2022/09/24 12:22:00;;;;;;;14.38;2.13;;;14.20;99.90;;;;;;5095050;28;20061;-39
2022/09/24 12:24:36;;;;;;;9.73;2.17;;;14.20;99.90;;;;;;5092608;28;20016;-36
2022/09/24 12:27:11;;;;;;;9.25;2.00;;;14.20;99.90;;;;;;5085599;28;20119;-35
2022/09/24 12:32:58;;;;;;;14.65;2.90;;;14.30;99.90;;;;;;5108079;28;20502;-39
2022/09/24 12:36:00;;;;;;;9.75;2.92;;;14.40;99.90;;;;;;5110264;28;20486;-36
2022/09/24 12:38:55;;;;;;;7.53;2.22;;;14.40;99.90;;;;;;5107212;28;20018;-34
2022/09/24 12:41:36;;;;;;;12.77;2.00;;;14.50;99.90;;;;;;5112831;28;20494;-37
2022/09/24 12:44:07;;;;;;;7.30;2.30;;;14.50;99.90;;;;;;5113093;28;20055;-37
2022/09/24 12:46:47;;;;;;;9.45;2.03;;;14.50;99.90;;;;;;5102993;28;20031;-60
2022/09/24 12:49:23;;;;;;;10.35;2.63;;;14.50;99.90;;;;;;5110513;28;20098;-37
2022/09/24 12:51:51;;;;;;;7.05;1.98;;;14.50;99.90;;;;;;5094624;28;20032;-31
2022/09/24 12:54:27;;;;;;;10.02;2.72;;;14.60;99.90;;;;;;5088425;28;20059;-60
2022/09/24 12:57:05;;;;;;;9.43;2.17;;;14.60;99.90;;;;;;5091875;28;20089;-43
2022/09/24 12:59:31;;;;;;;5.25;1.70;;;14.70;99.90;;;;;;5093245;28;20541;-31
2022/09/24 13:02:13;;;;;;;8.95;1.92;;;14.80;99.90;;;;;;5092348;28;20028;-35
2022/09/24 13:04:44;;;;;;;18.33;3.72;;;14.90;99.90;;;;;;5086507;28;20039;-36
2022/09/24 13:07:29;;;;;;;8.32;2.35;;;14.90;99.90;;;;;;5115739;28;20015;-32
2022/09/24 13:09:55;;;;;;;8.52;2.42;;;14.90;99.90;;;;;;5107265;28;20031;-36
2022/09/24 13:12:28;;;;;;;10.07;2.33;;;14.90;99.90;;;;;;5110067;28;20544;-40
2022/09/24 13:15:03;;;;;;;9.20;2.42;;;15.00;99.90;;;;;;5113416;28;20506;-37
2022/09/24 13:23:56;;;;;;;2.95;1.63;;;14.90;99.90;;;;;;5052048;27;1949822;-30